Riceville, Pennsylvania
Current Conditions -  °F | °C
As of 1:32 PM on Thursday 30 Oct 2014 (Local Time) from KGKJ Reporting Station
Overcast Overcast  
Wind Chill: 40°   Ceiling: 2700
Heat Index: 45°   Visibility: 10mi
Dew Point: 36°   Wind: 9mph
Humidity: 71%   Direction: 280°W
Pressure: 30.07"   Gusts: NA
Location:  41.78°N, 79.8°W
Report Text: KGKJ 301732Z AUTO 28008KT 10SM SCT019 BKN027 OVC039 07/02 A3007 RMK AO2 T00720022 TSNO
Loading
Personal Weather Stations






























Interactive Weather Map
Tropical Storm Tracking
New forecast layout! Learn more

10-Day Weather Forecast

Advertisements
Track Severe Weather on mobile